Time;durP1;ratioP1;P1;durP2;ratioP2;P2;SDS_P1;SDS_P2;PMS_P1;PMS_P2;Temp;Humidity;BMP_temperature;BMP_pressure;BME280_temperature;BME280_humidity;BME280_pressure;Samples;Min_cycle;Max_cycle;Signal;HPM_P1;HPM_P2
2022/09/05 00:02:00;;;;;;;5.30;2.03;;;16.90;76.70;;;;;;5074191;28;20484;-74
2022/09/05 00:05:01;;;;;;;2.95;1.70;;;17.00;76.40;;;;;;5073956;28;20027;-73
2022/09/05 00:07:33;;;;;;;3.05;1.70;;;17.00;76.40;;;;;;5073811;28;20568;-73
2022/09/05 00:09:58;;;;;;;2.38;1.83;;;17.00;76.30;;;;;;5073700;28;20059;-74
2022/09/05 00:12:26;;;;;;;5.40;2.00;;;17.00;76.20;;;;;;5084252;28;20052;-74
2022/09/05 00:15:06;;;;;;;5.30;2.22;;;17.10;76.30;;;;;;5082905;28;20052;-73
2022/09/05 00:17:54;;;;;;;2.67;1.80;;;17.10;76.10;;;;;;5075287;28;20029;-74
2022/09/05 00:20:47;;;;;;;2.92;1.80;;;17.10;76.00;;;;;;5073999;28;20056;-80
2022/09/05 00:23:24;;;;;;;5.25;1.90;;;17.00;76.00;;;;;;5073860;28;20017;-80
2022/09/05 00:26:05;;;;;;;3.72;1.80;;;16.90;76.50;;;;;;5073786;28;20480;-78
2022/09/05 00:29:08;;;;;;;2.40;1.80;;;16.90;77.00;;;;;;5073559;28;20031;-79
2022/09/05 00:31:59;;;;;;;6.65;2.10;;;16.80;77.00;;;;;;5073709;28;20115;-73
2022/09/05 00:34:49;;;;;;;2.20;1.77;;;16.80;77.20;;;;;;5073562;28;20094;-75
2022/09/05 00:37:45;;;;;;;3.80;2.05;;;16.80;77.40;;;;;;5073196;28;20052;-72
2022/09/05 00:40:32;;;;;;;2.53;1.90;;;16.80;77.40;;;;;;5073317;28;20035;-73
2022/09/05 00:43:06;;;;;;;2.45;1.73;;;16.70;77.50;;;;;;5073266;28;20113;-73
2022/09/05 00:45:42;;;;;;;3.70;1.88;;;16.70;77.60;;;;;;5073018;28;20021;-73
2022/09/05 00:48:11;;;;;;;5.13;2.00;;;16.70;77.70;;;;;;5073363;28;20070;-73
2022/09/05 00:51:08;;;;;;;3.33;1.92;;;16.70;77.80;;;;;;5073314;28;20021;-73
2022/09/05 00:53:47;;;;;;;4.95;2.10;;;16.70;77.90;;;;;;5072947;28;20029;-77
2022/09/05 00:56:29;;;;;;;3.72;2.05;;;16.60;77.50;;;;;;5072960;28;20380;-73
2022/09/05 00:59:26;;;;;;;4.90;2.17;;;16.70;77.50;;;;;;5074336;28;20020;-79
2022/09/05 01:02:20;;;;;;;2.38;2.03;;;16.70;77.50;;;;;;5072885;28;20040;-75
2022/09/05 01:05:19;;;;;;;4.53;2.13;;;16.70;77.40;;;;;;5073189;28;20115;-73
2022/09/05 01:08:25;;;;;;;7.15;2.22;;;16.70;77.50;;;;;;5072849;28;20461;-78
2022/09/05 01:11:16;;;;;;;2.60;1.92;;;16.60;77.50;;;;;;5072643;28;20052;-79
2022/09/05 01:14:07;;;;;;;3.38;1.90;;;16.50;77.80;;;;;;5072401;28;20180;-74
2022/09/05 01:17:19;;;;;;;6.95;2.33;;;16.50;78.00;;;;;;5072445;28;20063;-73
2022/09/05 01:20:03;;;;;;;3.03;2.03;;;16.40;78.50;;;;;;5072622;28;20582;-73
2022/09/05 01:22:58;;;;;;;3.38;2.08;;;16.30;78.90;;;;;;5072350;28;20021;-72
2022/09/05 01:25:26;;;;;;;4.00;1.95;;;16.20;79.00;;;;;;5072590;28;20072;-76
2022/09/05 01:28:10;;;;;;;3.45;2.10;;;16.20;79.10;;;;;;5072462;28;20111;-79
2022/09/05 01:31:11;;;;;;;3.08;1.80;;;16.30;79.00;;;;;;5072285;28;20050;-73
2022/09/05 01:33:53;;;;;;;5.18;1.98;;;16.30;78.90;;;;;;5072415;28;20020;-71
2022/09/05 01:36:29;;;;;;;4.55;2.22;;;16.30;78.90;;;;;;5072311;28;20052;-72
2022/09/05 01:39:03;;;;;;;3.85;2.10;;;16.40;78.80;;;;;;5072139;28;20090;-72
2022/09/05 01:41:38;;;;;;;5.20;2.17;;;16.30;78.70;;;;;;5071692;28;20404;-73
2022/09/05 01:44:36;;;;;;;4.72;2.55;;;16.40;78.70;;;;;;5072312;28;20255;-74
2022/09/05 01:47:24;;;;;;;3.08;2.10;;;16.40;78.50;;;;;;5070106;28;20039;-72
2022/09/05 01:50:14;;;;;;;3.95;2.17;;;16.40;78.50;;;;;;5071982;28;20028;-72
2022/09/05 01:53:01;;;;;;;5.07;2.10;;;16.30;78.60;;;;;;5072063;28;20044;-72
2022/09/05 01:56:05;;;;;;;5.55;2.08;;;16.30;78.90;;;;;;5072127;28;20055;-80
2022/09/05 01:59:06;;;;;;;3.53;1.90;;;16.30;79.00;;;;;;5071797;28;20036;-75
2022/09/05 02:01:50;;;;;;;4.78;2.20;;;16.20;79.10;;;;;;5071992;28;20017;-80
2022/09/05 02:04:46;;;;;;;3.47;2.17;;;16.20;78.90;;;;;;5072129;28;20048;-72
2022/09/05 02:07:30;;;;;;;;;;;16.20;80.00;;;;;;5072393;28;20468;-73
2022/09/05 02:10:10;;;;;;;7.57;2.47;;;16.00;79.50;;;;;;5071480;28;19946;-76
2022/09/05 02:12:46;;;;;;;2.95;2.25;;;16.00;79.60;;;;;;5071435;28;20063;-79
2022/09/05 02:15:25;;;;;;;4.32;2.10;;;15.90;80.10;;;;;;5071673;28;20033;-74
2022/09/05 02:17:55;;;;;;;5.55;2.58;;;15.80;80.50;;;;;;5071798;28;20031;-73
2022/09/05 02:20:48;;;;;;;4.97;2.08;;;15.70;81.10;;;;;;5075942;28;20469;-74
2022/09/05 02:23:17;;;;;;;3.88;2.65;;;15.70;81.30;;;;;;5074921;28;20030;-72
2022/09/05 02:25:53;;;;;;;3.50;2.50;;;15.70;81.40;;;;;;5097490;28;20132;-74
2022/09/05 02:28:48;;;;;;;3.03;2.20;;;15.60;81.30;;;;;;5088868;28;20044;-76
2022/09/05 02:31:44;;;;;;;2.97;2.15;;;15.70;81.30;;;;;;5094811;28;20033;-73
2022/09/05 02:34:47;;;;;;;2.28;2.05;;;15.70;81.20;;;;;;5082609;28;20028;-73
2022/09/05 02:37:33;;;;;;;3.47;2.25;;;15.70;81.20;;;;;;5086291;28;20025;-73
2022/09/05 02:40:04;;;;;;;;;;;15.70;81.20;;;;;;5076656;28;20078;-79
2022/09/05 02:42:47;;;;;;;4.78;2.10;;;15.80;81.10;;;;;;5073646;28;19905;-79
2022/09/05 02:45:17;;;;;;;4.63;2.25;;;15.80;80.90;;;;;;5075223;28;20021;-80
2022/09/05 02:48:06;;;;;;;3.15;1.95;;;16.00;80.70;;;;;;5081471;28;20024;-78
2022/09/05 02:50:38;;;;;;;4.43;2.30;;;16.00;80.40;;;;;;5074738;28;20473;-79
2022/09/05 02:53:05;;;;;;;3.10;2.13;;;16.00;79.90;;;;;;5074787;28;20031;-80
2022/09/05 02:55:58;;;;;;;2.45;1.73;;;16.00;79.60;;;;;;5074869;28;20024;-81
2022/09/05 02:58:42;;;;;;;2.58;2.13;;;16.00;79.50;;;;;;5075632;28;20074;-81
2022/09/05 03:01:49;;;;;;;3.88;2.10;;;15.90;79.60;;;;;;5075273;28;20024;-79
2022/09/05 03:04:35;;;;;;;3.35;2.20;;;15.80;79.80;;;;;;5061652;28;20123;-81
2022/09/05 03:07:07;;;;;;;2.78;2.25;;;15.70;80.20;;;;;;5075278;28;20029;-73
2022/09/05 03:09:54;;;;;;;4.78;2.25;;;15.70;80.50;;;;;;5074669;28;20045;-74
2022/09/05 03:12:45;;;;;;;6.00;2.55;;;15.70;80.80;;;;;;5075038;28;20047;-79
2022/09/05 03:15:42;;;;;;;3.15;2.30;;;15.70;80.60;;;;;;5074839;28;20048;-79
2022/09/05 03:18:45;;;;;;;3.55;2.20;;;15.70;80.80;;;;;;5075005;28;20031;-76
2022/09/05 03:21:14;;;;;;;5.53;2.47;;;15.60;80.60;;;;;;5074900;28;20086;-80
2022/09/05 03:24:05;;;;;;;4.60;2.50;;;15.60;80.70;;;;;;5074571;28;20422;-80
2022/09/05 03:27:06;;;;;;;5.18;2.25;;;15.70;80.60;;;;;;5074848;28;20542;-81
2022/09/05 03:29:40;;;;;;;4.85;2.15;;;15.70;80.50;;;;;;5072512;28;20481;-80
2022/09/05 03:32:09;;;;;;;6.28;2.30;;;15.60;80.60;;;;;;5075395;28;20035;-81
2022/09/05 03:35:19;;;;;;;7.32;2.60;;;15.60;80.70;;;;;;5074877;28;20384;-80
2022/09/05 03:38:14;;;;;;;5.55;2.10;;;15.60;80.90;;;;;;5074724;28;20012;-78
2022/09/05 03:40:48;;;;;;;4.82;2.67;;;15.50;81.30;;;;;;5074248;28;20614;-80
2022/09/05 03:43:13;;;;;;;4.88;2.55;;;15.50;81.60;;;;;;5074310;28;20025;-80
2022/09/05 03:45:45;;;;;;;3.90;2.35;;;15.30;82.00;;;;;;5074286;28;20025;-80
2022/09/05 03:48:32;;;;;;;5.72;2.35;;;15.30;82.20;;;;;;5074233;28;20078;-80
2022/09/05 03:51:02;;;;;;;4.53;2.17;;;15.30;82.40;;;;;;5074065;28;20040;-77
2022/09/05 03:53:41;;;;;;;2.50;2.05;;;15.30;82.50;;;;;;5074383;28;20025;-78
2022/09/05 03:56:22;;;;;;;3.00;2.53;;;15.20;82.50;;;;;;5074364;28;20021;-76
2022/09/05 03:59:35;;;;;;;4.30;2.40;;;15.20;82.40;;;;;;5074010;28;20035;-80
2022/09/05 04:02:08;;;;;;;4.55;2.38;;;15.20;82.50;;;;;;5070644;28;20040;-80
2022/09/05 04:04:39;;;;;;;6.57;2.55;;;15.20;82.70;;;;;;5073766;28;20056;-78
2022/09/05 04:07:15;;;;;;;4.90;2.40;;;15.20;82.90;;;;;;5073780;28;20032;-75
2022/09/05 04:09:47;;;;;;;6.53;2.33;;;15.20;83.10;;;;;;5073455;28;20055;-77
2022/09/05 04:12:21;;;;;;;6.38;2.55;;;15.10;83.20;;;;;;5073991;28;20082;-79
2022/09/05 04:15:01;;;;;;;5.22;2.70;;;15.10;83.40;;;;;;5073998;28;20112;-78
2022/09/05 04:17:35;;;;;;;4.35;2.47;;;15.10;83.30;;;;;;5073999;28;20027;-79
2022/09/05 04:20:10;;;;;;;3.33;2.53;;;15.10;83.00;;;;;;5073818;28;20029;-76
2022/09/05 04:22:48;;;;;;;5.57;2.70;;;15.10;83.10;;;;;;5074076;28;20031;-80
2022/09/05 04:25:29;;;;;;;3.60;2.72;;;15.10;83.20;;;;;;5073747;28;20025;-79
2022/09/05 04:28:15;;;;;;;5.38;2.70;;;15.10;83.10;;;;;;5073541;28;20388;-80
2022/09/05 04:30:48;;;;;;;3.75;2.40;;;15.10;83.20;;;;;;5073008;28;20480;-75
2022/09/05 04:33:34;;;;;;;6.50;2.80;;;15.10;84.10;;;;;;5073410;28;20455;-75
2022/09/05 04:36:18;;;;;;;3.95;2.60;;;15.10;83.20;;;;;;5073362;28;20029;-73
2022/09/05 04:38:44;;;;;;;4.70;2.83;;;15.10;83.20;;;;;;5073136;28;20029;-78
2022/09/05 04:41:19;;;;;;;3.45;2.70;;;15.00;83.20;;;;;;5073527;28;20024;-80
2022/09/05 04:43:48;;;;;;;4.95;3.17;;;15.00;83.50;;;;;;5073053;28;20048;-76
2022/09/05 04:46:41;;;;;;;3.03;2.65;;;15.00;83.30;;;;;;5073084;28;20060;-73
2022/09/05 04:49:22;;;;;;;6.93;3.30;;;15.00;83.30;;;;;;5072954;28;20025;-73
2022/09/05 04:51:56;;;;;;;4.80;2.90;;;15.00;83.00;;;;;;5073237;28;20064;-74
2022/09/05 04:54:29;;;;;;;5.15;2.80;;;15.00;83.30;;;;;;5073179;28;20017;-81
2022/09/05 04:57:07;;;;;;;6.32;3.35;;;15.00;83.40;;;;;;5073336;28;20052;-76
2022/09/05 04:59:49;;;;;;;6.93;3.28;;;15.00;83.50;;;;;;5078272;28;20017;-78
2022/09/05 05:02:36;;;;;;;5.32;2.65;;;15.00;83.40;;;;;;5088702;28;20013;-74
2022/09/05 05:05:20;;;;;;;3.47;2.40;;;15.00;83.00;;;;;;5089980;28;20035;-74
2022/09/05 05:08:02;;;;;;;7.45;2.92;;;15.10;83.00;;;;;;5084816;28;20059;-73
2022/09/05 05:10:35;;;;;;;6.43;3.00;;;15.10;82.80;;;;;;5085797;28;20056;-73
2022/09/05 05:13:17;;;;;;;5.00;3.03;;;15.20;82.90;;;;;;5081770;28;20042;-73
2022/09/05 05:15:49;;;;;;;3.50;2.75;;;15.20;82.70;;;;;;5073053;28;20016;-75
2022/09/05 05:18:26;;;;;;;5.10;2.90;;;15.20;82.70;;;;;;5072715;28;20439;-80
2022/09/05 05:21:05;;;;;;;5.22;2.78;;;15.20;82.50;;;;;;5062355;28;20115;-76
2022/09/05 05:23:38;;;;;;;5.70;3.03;;;15.30;83.60;;;;;;5072603;28;20036;-76
2022/09/05 05:26:11;;;;;;;10.88;3.17;;;15.50;82.20;;;;;;5073067;28;20166;-78
2022/09/05 05:28:39;;;;;;;9.75;3.30;;;15.60;83.30;;;;;;5072309;28;20024;-79
2022/09/05 05:31:12;;;;;;;7.07;3.08;;;15.80;81.80;;;;;;5072153;28;20190;-79
2022/09/05 05:33:40;;;;;;;5.35;3.08;;;15.90;80.80;;;;;;5072242;28;20115;-79
2022/09/05 05:36:13;;;;;;;4.80;2.97;;;16.10;79.50;;;;;;5072493;28;20127;-77
2022/09/05 05:39:01;;;;;;;4.05;2.88;;;16.10;79.30;;;;;;5072021;28;20435;-78
2022/09/05 05:41:41;;;;;;;6.18;2.95;;;16.30;79.00;;;;;;5071879;28;20028;-78
2022/09/05 05:44:38;;;;;;;3.88;2.65;;;16.40;78.30;;;;;;5072033;28;20043;-78
2022/09/05 05:47:30;;;;;;;4.15;2.95;;;16.40;77.90;;;;;;5063699;28;20033;-78
2022/09/05 05:50:02;;;;;;;4.75;2.90;;;16.40;78.10;;;;;;5067549;28;20043;-77
2022/09/05 05:52:47;;;;;;;5.25;2.53;;;16.40;77.90;;;;;;5071832;28;20476;-76
2022/09/05 05:55:21;;;;;;;8.90;2.70;;;16.40;78.10;;;;;;5072712;28;20029;-75
2022/09/05 05:58:02;;;;;;;7.63;2.87;;;16.50;77.60;;;;;;5071583;28;20036;-75
2022/09/05 06:00:52;;;;;;;3.97;2.50;;;16.70;77.20;;;;;;5071027;28;20275;-76
2022/09/05 06:03:36;;;;;;;5.03;2.63;;;16.80;77.00;;;;;;5071486;28;20043;-74
2022/09/05 06:06:19;;;;;;;4.82;2.65;;;17.00;76.40;;;;;;5071391;28;20027;-76
2022/09/05 06:09:06;;;;;;;7.13;2.92;;;17.10;75.90;;;;;;5071603;28;20024;-74
2022/09/05 06:12:05;;;;;;;5.43;2.67;;;17.20;75.40;;;;;;5071465;28;20036;-75
2022/09/05 06:14:50;;;;;;;3.08;2.42;;;17.20;75.00;;;;;;5072225;28;20111;-76
2022/09/05 06:17:25;;;;;;;3.72;2.45;;;17.30;74.90;;;;;;5073063;28;20052;-76
2022/09/05 06:20:22;;;;;;;4.68;2.38;;;17.30;74.90;;;;;;5072946;28;20020;-76
2022/09/05 06:23:21;;;;;;;4.28;2.60;;;17.50;74.30;;;;;;5072522;28;20028;-75
2022/09/05 06:26:15;;;;;;;5.05;3.00;;;17.60;73.70;;;;;;5072788;28;20028;-76
2022/09/05 06:29:18;;;;;;;6.03;2.50;;;17.80;73.60;;;;;;5075644;28;20027;-76
2022/09/05 06:32:02;;;;;;;4.20;2.80;;;17.80;73.10;;;;;;5076440;28;20496;-75
2022/09/05 06:35:15;;;;;;;5.65;2.47;;;18.00;72.90;;;;;;5075139;28;20029;-77
2022/09/05 06:38:09;;;;;;;6.60;2.72;;;18.00;72.90;;;;;;5037787;28;20025;-76
2022/09/05 06:40:38;;;;;;;4.70;2.55;;;18.00;73.10;;;;;;5075276;28;20044;-78
2022/09/05 06:43:22;;;;;;;3.10;2.40;;;18.10;73.30;;;;;;5076001;28;20021;-78
2022/09/05 06:45:57;;;;;;;3.25;2.40;;;18.00;73.10;;;;;;5074900;28;20040;-77
2022/09/05 06:48:40;;;;;;;4.18;2.47;;;18.00;73.70;;;;;;5074761;28;20021;-77
2022/09/05 06:51:41;;;;;;;3.30;2.22;;;18.00;74.50;;;;;;5074773;28;20043;-78
2022/09/05 06:54:12;;;;;;;3.47;2.40;;;18.20;73.50;;;;;;5075155;28;20017;-76
2022/09/05 06:56:47;;;;;;;2.65;2.15;;;18.30;73.40;;;;;;5075111;28;20055;-77
2022/09/05 06:59:40;;;;;;;7.07;2.40;;;18.50;73.10;;;;;;5075061;28;20025;-76
2022/09/05 07:02:36;;;;;;;3.50;2.15;;;18.60;72.50;;;;;;5074915;28;20029;-76
2022/09/05 07:05:40;;;;;;;3.85;2.40;;;18.60;72.90;;;;;;5073505;28;20183;-76
2022/09/05 07:08:25;;;;;;;2.83;2.15;;;18.70;72.90;;;;;;5075313;28;20028;-75
2022/09/05 07:11:18;;;;;;;3.47;2.80;;;18.90;72.30;;;;;;5075761;28;20109;-77
2022/09/05 07:13:49;;;;;;;5.20;2.35;;;19.10;72.10;;;;;;5055722;28;20145;-76
2022/09/05 07:16:42;;;;;;;7.25;2.75;;;19.30;71.60;;;;;;5075401;28;20081;-76
2022/09/05 07:19:24;;;;;;;5.80;2.47;;;19.50;71.80;;;;;;5071152;28;20040;-77
2022/09/05 07:22:22;;;;;;;2.65;2.17;;;19.80;70.70;;;;;;5074642;28;20024;-76
2022/09/05 07:24:53;;;;;;;2.97;2.22;;;19.90;70.20;;;;;;5075094;28;20031;-77
2022/09/05 07:27:42;;;;;;;4.15;2.35;;;20.00;70.70;;;;;;5074466;28;20437;-77
2022/09/05 07:30:10;;;;;;;5.63;2.60;;;20.20;69.70;;;;;;5074475;28;20138;-77
2022/09/05 07:32:50;;;;;;;3.20;2.22;;;20.20;69.40;;;;;;5075040;28;20032;-76
2022/09/05 07:35:28;;;;;;;8.18;2.55;;;20.40;69.10;;;;;;5077209;28;20055;-77
2022/09/05 07:38:33;;;;;;;5.28;2.47;;;20.50;68.50;;;;;;5074073;28;20028;-77
2022/09/05 07:41:26;;;;;;;5.07;2.42;;;20.60;68.30;;;;;;5073563;28;20489;-76
2022/09/05 07:44:01;;;;;;;4.38;2.08;;;20.80;67.70;;;;;;5072961;28;20036;-78
2022/09/05 07:46:35;;;;;;;4.00;2.35;;;20.90;68.00;;;;;;5076871;28;20021;-77
2022/09/05 07:49:13;;;;;;;3.20;2.10;;;21.00;67.60;;;;;;5065326;28;20111;-77
2022/09/05 07:51:53;;;;;;;2.58;2.10;;;21.10;67.30;;;;;;5074359;28;20066;-79
2022/09/05 07:54:29;;;;;;;3.72;2.22;;;21.20;67.20;;;;;;5074124;28;20024;-77
2022/09/05 07:57:15;;;;;;;;;;;21.40;67.30;;;;;;5074953;28;20024;-79
2022/09/05 07:59:42;;;;;;;4.13;2.67;;;21.60;67.20;;;;;;5074344;28;19905;-77
2022/09/05 08:02:10;;;;;;;6.38;2.40;;;21.70;67.50;;;;;;5073759;28;20039;-78
2022/09/05 08:04:43;;;;;;;7.30;2.60;;;21.90;66.80;;;;;;5057329;28;20020;-79
2022/09/05 08:07:19;;;;;;;3.92;2.70;;;22.00;66.60;;;;;;5074918;28;20039;-80
2022/09/05 08:09:55;;;;;;;5.68;2.75;;;22.10;66.10;;;;;;5073831;28;20098;-79
2022/09/05 08:12:47;;;;;;;4.35;2.38;;;22.00;66.20;;;;;;5073914;28;20754;-79
2022/09/05 08:15:29;;;;;;;4.13;2.60;;;22.00;66.70;;;;;;5074208;28;20025;-79
2022/09/05 08:18:22;;;;;;;4.40;2.85;;;22.10;67.00;;;;;;5078138;28;20024;-77
2022/09/05 08:20:59;;;;;;;5.38;2.92;;;22.20;66.00;;;;;;5079516;28;20032;-77
2022/09/05 08:24:01;;;;;;;7.72;2.70;;;22.30;65.70;;;;;;5077592;28;20028;-78
2022/09/05 08:26:32;;;;;;;7.13;2.70;;;22.30;65.40;;;;;;5091893;28;20016;-79
2022/09/05 08:29:15;;;;;;;3.72;2.60;;;22.40;64.90;;;;;;5090003;28;20032;-79
2022/09/05 08:31:51;;;;;;;4.88;2.35;;;22.50;65.70;;;;;;5086051;28;20483;-80
2022/09/05 08:34:24;;;;;;;5.60;2.80;;;22.60;65.20;;;;;;5079879;28;20039;-78
2022/09/05 08:36:54;;;;;;;3.65;2.35;;;22.60;65.70;;;;;;5057108;28;20028;-80
2022/09/05 08:39:25;;;;;;;4.45;2.72;;;22.70;65.90;;;;;;5073278;28;20164;-80
2022/09/05 08:42:28;;;;;;;3.92;2.33;;;22.70;64.70;;;;;;5073324;28;20016;-79
2022/09/05 08:44:59;;;;;;;3.92;2.40;;;22.90;65.80;;;;;;5073213;28;20047;-79
2022/09/05 08:48:01;;;;;;;4.45;2.33;;;23.00;65.30;;;;;;5073168;28;20350;-79
2022/09/05 08:50:57;;;;;;;6.40;2.10;;;23.10;64.70;;;;;;5064474;28;20044;-79
2022/09/05 08:54:00;;;;;;;3.53;2.28;;;23.20;63.70;;;;;;5067796;28;20067;-79
2022/09/05 08:56:35;;;;;;;5.68;2.83;;;23.40;64.20;;;;;;5073948;28;20082;-79
2022/09/05 08:59:29;;;;;;;3.17;2.20;;;23.50;63.20;;;;;;5072518;28;20036;-79
2022/09/05 09:02:33;;;;;;;7.47;2.28;;;23.70;62.80;;;;;;5074497;28;20024;-80
2022/09/05 09:05:10;;;;;;;3.47;2.30;;;23.80;60.90;;;;;;5072819;28;20492;-79
2022/09/05 09:07:55;;;;;;;4.28;2.33;;;23.80;61.00;;;;;;5072477;28;20062;-79
2022/09/05 09:10:45;;;;;;;5.50;2.13;;;24.00;60.50;;;;;;5071605;28;20048;-80
2022/09/05 09:13:37;;;;;;;3.78;2.20;;;24.20;58.70;;;;;;5072340;28;20033;-80
2022/09/05 09:16:09;;;;;;;4.50;2.25;;;24.30;57.20;;;;;;5056111;28;20040;-80
2022/09/05 09:19:06;;;;;;;2.28;2.08;;;24.50;57.60;;;;;;5071865;28;20550;-79
2022/09/05 09:22:07;;;;;;;4.47;2.00;;;24.60;55.40;;;;;;5071977;28;20035;-80
2022/09/05 09:24:41;;;;;;;3.08;1.65;;;24.80;52.50;;;;;;5072324;28;20521;-79
2022/09/05 09:27:41;;;;;;;2.72;1.88;;;24.90;51.40;;;;;;5072399;28;20024;-79
2022/09/05 09:30:08;;;;;;;3.97;1.80;;;25.00;51.10;;;;;;5072982;28;20060;-80
2022/09/05 09:32:45;;;;;;;5.68;2.22;;;25.10;51.20;;;;;;5071240;28;20139;-80
2022/09/05 09:35:20;;;;;;;2.85;1.80;;;25.20;49.50;;;;;;5073542;28;20021;-80
2022/09/05 09:38:05;;;;;;;8.48;1.85;;;25.30;49.00;;;;;;5072128;28;20025;-80
2022/09/05 09:41:10;;;;;;;2.63;1.90;;;25.40;48.40;;;;;;5071782;28;20029;-80
2022/09/05 09:43:48;;;;;;;2.40;1.92;;;25.60;47.60;;;;;;5073330;28;20032;-80
2022/09/05 09:46:36;;;;;;;2.67;1.70;;;25.80;46.00;;;;;;5071833;28;20024;-79
2022/09/05 09:49:07;;;;;;;4.20;1.48;;;25.90;45.60;;;;;;5071982;28;20028;-79
2022/09/05 09:52:05;;;;;;;1.88;1.52;;;25.80;41.70;;;;;;5073160;28;20028;-79
2022/09/05 09:54:44;;;;;;;3.10;1.55;;;25.90;40.00;;;;;;5073390;28;20117;-79
2022/09/05 09:57:40;;;;;;;1.90;1.40;;;26.00;40.10;;;;;;5072951;28;20738;-81
2022/09/05 10:00:19;;;;;;;5.25;1.80;;;25.80;40.10;;;;;;5052111;28;20120;-79
2022/09/05 10:03:31;;;;;;;2.10;1.60;;;25.90;41.90;;;;;;5057683;28;20051;-80
2022/09/05 10:06:26;;;;;;;5.00;1.63;;;26.20;40.90;;;;;;5073468;28;20037;-81
2022/09/05 10:09:21;;;;;;;3.35;1.90;;;26.30;41.00;;;;;;5082126;28;20024;-81
2022/09/05 10:12:23;;;;;;;4.55;1.88;;;26.20;40.70;;;;;;5076820;28;20045;-80
2022/09/05 10:15:26;;;;;;;3.45;1.90;;;26.10;41.40;;;;;;5071876;28;20029;-79
2022/09/05 10:18:04;;;;;;;2.45;1.90;;;26.20;41.10;;;;;;5084010;28;20035;-79
2022/09/05 10:20:34;;;;;;;6.20;2.00;;;26.30;41.90;;;;;;5074926;28;20029;-78
2022/09/05 10:23:41;;;;;;;3.30;2.55;;;26.40;42.00;;;;;;5072475;28;20489;-80
2022/09/05 10:26:23;;;;;;;2.75;1.70;;;26.70;40.30;;;;;;5071138;28;20021;-81
2022/09/05 10:29:17;;;;;;;2.85;1.80;;;26.80;38.60;;;;;;5071378;28;20028;-80
2022/09/05 10:31:56;;;;;;;1.90;1.73;;;27.20;38.40;;;;;;5071931;28;20049;-80
2022/09/05 10:34:45;;;;;;;3.50;1.90;;;27.40;38.70;;;;;;5070209;28;20025;-77
2022/09/05 10:37:12;;;;;;;2.17;1.60;;;27.60;38.00;;;;;;5070320;28;20032;-75
2022/09/05 10:39:42;;;;;;;4.60;1.80;;;27.70;37.80;;;;;;5070221;28;20120;-75
2022/09/05 10:42:33;;;;;;;4.30;1.83;;;28.00;36.60;;;;;;5067454;28;20059;-75
2022/09/05 10:45:03;;;;;;;1.90;1.50;;;28.20;35.90;;;;;;5071426;28;20028;-74
2022/09/05 10:47:51;;;;;;;3.17;1.42;;;28.40;35.60;;;;;;5071207;28;20033;-76
2022/09/05 10:50:23;;;;;;;1.52;1.35;;;28.70;34.90;;;;;;5071136;28;20040;-77
2022/09/05 10:52:48;;;;;;;1.80;1.40;;;28.70;33.90;;;;;;5071520;28;20032;-81
2022/09/05 10:55:26;;;;;;;2.47;1.60;;;28.80;35.30;;;;;;5071303;28;20089;-81
2022/09/05 10:58:28;;;;;;;3.22;1.80;;;29.00;33.60;;;;;;5071136;28;20029;-78
2022/09/05 11:01:27;;;;;;;3.45;1.40;;;29.30;33.30;;;;;;5071477;28;20051;-76
2022/09/05 11:04:19;;;;;;;7.72;1.45;;;29.30;30.60;;;;;;5069221;28;20055;-76
2022/09/05 11:07:11;;;;;;;3.30;1.77;;;29.30;30.40;;;;;;5071091;28;20052;-78
2022/09/05 11:10:01;;;;;;;4.20;1.50;;;29.40;31.30;;;;;;5070773;28;20044;-78
2022/09/05 11:12:39;;;;;;;1.50;1.20;;;29.40;31.10;;;;;;5070681;28;20512;-75
2022/09/05 11:15:18;;;;;;;1.73;1.30;;;29.20;27.90;;;;;;5074588;28;20103;-77
2022/09/05 11:18:06;;;;;;;2.13;1.50;;;28.90;29.70;;;;;;5074924;28;20094;-77
2022/09/05 11:20:42;;;;;;;4.20;1.60;;;29.10;31.30;;;;;;5072908;28;20013;-77
2022/09/05 11:23:30;;;;;;;1.42;1.30;;;29.00;30.00;;;;;;5074805;28;20558;-78
2022/09/05 11:26:22;;;;;;;5.32;1.08;;;29.20;25.00;;;;;;5070932;28;20044;-78
2022/09/05 11:28:56;;;;;;;2.65;1.40;;;29.40;25.80;;;;;;5072219;28;20032;-76
2022/09/05 11:31:35;;;;;;;10.13;1.75;;;29.30;26.10;;;;;;5074537;28;20032;-76
2022/09/05 11:34:25;;;;;;;13.15;1.85;;;29.10;27.30;;;;;;5074480;28;20025;-76
2022/09/05 11:36:55;;;;;;;3.10;1.38;;;28.90;28.50;;;;;;5073895;28;20032;-77
2022/09/05 11:40:00;;;;;;;3.78;1.40;;;29.00;29.90;;;;;;5074208;28;20024;-77
2022/09/05 11:42:47;;;;;;;1.98;1.48;;;28.90;30.10;;;;;;5066725;28;20040;-77
2022/09/05 11:45:38;;;;;;;2.03;1.67;;;28.60;30.00;;;;;;5073944;28;20028;-77
2022/09/05 11:48:49;;;;;;;4.95;1.58;;;28.50;30.90;;;;;;5073981;28;20078;-77
2022/09/05 11:51:51;;;;;;;3.17;1.73;;;28.60;32.80;;;;;;5054476;28;20078;-78
2022/09/05 11:54:58;;;;;;;2.42;1.50;;;29.10;32.00;;;;;;5107511;28;20461;-78
2022/09/05 11:57:33;;;;;;;1.80;1.52;;;29.40;31.50;;;;;;5073917;28;20491;-77
2022/09/05 12:00:15;;;;;;;1.70;1.50;;;29.30;31.40;;;;;;5073706;28;20104;-78
2022/09/05 12:03:05;;;;;;;1.40;1.30;;;29.20;32.40;;;;;;5074182;28;20492;-78
2022/09/05 12:05:36;;;;;;;2.08;1.50;;;29.00;32.90;;;;;;5071892;28;20025;-77
2022/09/05 12:08:04;;;;;;;2.50;1.48;;;28.90;32.00;;;;;;5073569;28;20024;-78
2022/09/05 12:10:59;;;;;;;3.47;1.48;;;29.00;32.20;;;;;;5086063;28;20060;-74
2022/09/05 12:13:31;;;;;;;2.30;1.40;;;28.80;31.40;;;;;;5093266;28;20032;-77
2022/09/05 12:15:59;;;;;;;1.98;1.55;;;28.70;32.50;;;;;;5094412;28;20093;-76
2022/09/05 12:18:34;;;;;;;3.15;1.63;;;28.40;32.20;;;;;;5093630;28;20044;-76
2022/09/05 12:21:11;;;;;;;;;;;28.20;32.80;;;;;;5089526;28;20392;-77
2022/09/05 12:24:04;;;;;;;2.92;1.70;;;28.20;32.80;;;;;;5073700;28;19935;-77
2022/09/05 12:26:58;;;;;;;2.47;1.55;;;28.00;33.10;;;;;;5073692;28;20024;-77
2022/09/05 12:29:26;;;;;;;2.08;1.52;;;28.00;33.80;;;;;;5056757;28;20378;-78
2022/09/05 12:32:00;;;;;;;5.57;2.15;;;28.00;34.00;;;;;;5073211;28;20059;-78
2022/09/05 12:34:52;;;;;;;2.72;1.60;;;28.00;33.70;;;;;;5073285;28;20020;-77
2022/09/05 12:37:25;;;;;;;2.13;1.50;;;28.10;33.20;;;;;;5073411;28;20040;-78
2022/09/05 12:40:10;;;;;;;1.90;1.70;;;28.10;34.20;;;;;;5072956;28;20035;-77
2022/09/05 12:42:56;;;;;;;2.97;1.70;;;28.00;33.20;;;;;;5074182;28;20086;-77
2022/09/05 12:45:33;;;;;;;1.83;1.50;;;27.90;33.90;;;;;;5073073;28;20388;-77
2022/09/05 12:48:14;;;;;;;4.25;1.80;;;28.30;35.00;;;;;;5072882;28;20033;-77
2022/09/05 12:50:53;;;;;;;2.88;1.67;;;28.70;34.50;;;;;;5083160;28;20033;-77
2022/09/05 12:53:20;;;;;;;1.55;1.38;;;28.80;32.80;;;;;;5081805;28;20119;-77
2022/09/05 12:56:01;;;;;;;3.72;1.67;;;28.80;32.80;;;;;;5072789;28;20122;-77
2022/09/05 12:58:34;;;;;;;4.97;1.60;;;28.60;33.20;;;;;;5073077;28;20028;-77
2022/09/05 13:01:19;;;;;;;4.05;1.80;;;28.50;32.00;;;;;;5072321;28;20024;-76
2022/09/05 13:04:17;;;;;;;1.73;1.27;;;28.20;32.80;;;;;;5072450;28;20078;-77
2022/09/05 13:07:01;;;;;;;3.88;1.70;;;28.30;32.60;;;;;;5072754;28;20039;-77
2022/09/05 13:09:37;;;;;;;3.55;1.80;;;28.70;33.20;;;;;;5072146;28;20066;-77
2022/09/05 13:12:49;;;;;;;3.72;1.70;;;29.20;33.00;;;;;;5072437;28;20032;-77
2022/09/05 13:15:31;;;;;;;3.70;1.60;;;29.80;31.10;;;;;;5034656;28;20437;-77
2022/09/05 13:18:01;;;;;;;1.45;1.30;;;30.20;31.10;;;;;;5071632;28;20039;-77
2022/09/05 13:20:38;;;;;;;2.50;1.70;;;30.60;30.00;;;;;;5072514;28;20073;-77
2022/09/05 13:23:25;;;;;;;2.65;1.50;;;30.90;28.90;;;;;;5072398;28;20036;-77
2022/09/05 13:26:16;;;;;;;1.60;1.40;;;31.20;29.40;;;;;;5072084;28;20031;-77
2022/09/05 13:28:53;;;;;;;3.50;1.50;;;31.00;28.40;;;;;;5072651;28;20029;-77
2022/09/05 13:31:41;;;;;;;2.78;2.17;;;30.80;28.50;;;;;;5072134;28;20043;-78
2022/09/05 13:34:22;;;;;;;2.55;1.58;;;30.60;29.70;;;;;;5072749;28;20028;-78
2022/09/05 13:37:02;;;;;;;2.88;1.40;;;30.30;29.20;;;;;;5071427;28;20504;-78
2022/09/05 13:39:46;;;;;;;3.40;1.30;;;30.00;29.90;;;;;;5071898;28;20028;-78
2022/09/05 13:42:17;;;;;;;2.15;1.70;;;29.90;30.10;;;;;;5073040;28;20029;-83
2022/09/05 13:44:45;;;;;;;2.05;1.85;;;29.80;31.70;;;;;;5072397;28;20054;-77
2022/09/05 13:47:40;;;;;;;2.03;1.83;;;29.50;31.10;;;;;;5071384;28;20025;-76
2022/09/05 13:50:25;;;;;;;2.55;1.65;;;29.30;31.60;;;;;;5071683;28;20017;-76
2022/09/05 13:53:11;;;;;;;1.95;1.77;;;29.20;32.10;;;;;;5071580;28;20036;-77
2022/09/05 13:55:47;;;;;;;3.72;1.88;;;29.00;32.50;;;;;;5071964;28;20027;-79
2022/09/05 13:58:41;;;;;;;4.25;1.90;;;28.70;32.90;;;;;;5071804;28;20054;-78
2022/09/05 14:01:23;;;;;;;4.45;1.50;;;28.40;33.20;;;;;;5071795;28;20027;-76
2022/09/05 14:04:04;;;;;;;3.90;1.60;;;28.30;34.00;;;;;;5071848;28;20550;-77
2022/09/05 14:06:30;;;;;;;1.95;1.75;;;28.10;34.10;;;;;;5071896;28;20028;-77
2022/09/05 14:09:25;;;;;;;2.03;1.55;;;27.90;33.60;;;;;;5071508;28;20039;-77
2022/09/05 14:11:59;;;;;;;2.50;1.90;;;27.80;34.40;;;;;;5071228;28;20209;-76
2022/09/05 14:14:36;;;;;;;3.42;1.63;;;27.60;34.60;;;;;;5071937;28;20021;-77